sensor_id;sensor_type;location;lat;lon;timestamp;P1;durP1;ratioP1;P2;durP2;ratioP2
1505;SDS011;744;51.436;7.356;2023-05-10T00:01:32;1.40;;;1.30;;
1505;SDS011;744;51.436;7.356;2023-05-10T00:03:59;1.60;;;1.50;;
1505;SDS011;744;51.436;7.356;2023-05-10T00:06:26;2.03;;;1.80;;
1505;SDS011;744;51.436;7.356;2023-05-10T00:08:54;1.50;;;1.40;;
1505;SDS011;744;51.436;7.356;2023-05-10T00:11:20;2.50;;;1.57;;
1505;SDS011;744;51.436;7.356;2023-05-10T00:13:48;2.60;;;2.00;;
1505;SDS011;744;51.436;7.356;2023-05-10T00:16:15;2.13;;;1.93;;
1505;SDS011;744;51.436;7.356;2023-05-10T00:18:42;2.87;;;2.23;;
1505;SDS011;744;51.436;7.356;2023-05-10T00:21:09;2.23;;;2.03;;
1505;SDS011;744;51.436;7.356;2023-05-10T00:23:36;2.30;;;2.10;;
1505;SDS011;744;51.436;7.356;2023-05-10T00:26:03;2.53;;;2.33;;
1505;SDS011;744;51.436;7.356;2023-05-10T00:28:30;1.80;;;1.70;;
1505;SDS011;744;51.436;7.356;2023-05-10T00:30:57;1.10;;;1.00;;
1505;SDS011;744;51.436;7.356;2023-05-10T00:33:23;3.33;;;1.67;;
1505;SDS011;744;51.436;7.356;2023-05-10T00:35:50;1.73;;;1.60;;
1505;SDS011;744;51.436;7.356;2023-05-10T00:38:17;2.17;;;1.30;;
1505;SDS011;744;51.436;7.356;2023-05-10T00:40:44;2.27;;;2.07;;
1505;SDS011;744;51.436;7.356;2023-05-10T00:43:11;2.27;;;1.50;;
1505;SDS011;744;51.436;7.356;2023-05-10T00:45:38;1.97;;;1.77;;
1505;SDS011;744;51.436;7.356;2023-05-10T00:48:06;1.43;;;1.30;;
1505;SDS011;744;51.436;7.356;2023-05-10T00:50:33;2.10;;;1.63;;
1505;SDS011;744;51.436;7.356;2023-05-10T00:53:01;1.60;;;1.50;;
1505;SDS011;744;51.436;7.356;2023-05-10T00:55:28;1.80;;;1.70;;
1505;SDS011;744;51.436;7.356;2023-05-10T00:57:56;4.00;;;2.00;;
1505;SDS011;744;51.436;7.356;2023-05-10T01:00:22;2.80;;;2.60;;
1505;SDS011;744;51.436;7.356;2023-05-10T01:02:49;2.93;;;2.63;;
1505;SDS011;744;51.436;7.356;2023-05-10T01:05:16;3.47;;;2.57;;
1505;SDS011;744;51.436;7.356;2023-05-10T01:07:43;3.53;;;3.23;;
1505;SDS011;744;51.436;7.356;2023-05-10T01:10:10;4.23;;;3.07;;
1505;SDS011;744;51.436;7.356;2023-05-10T01:12:38;4.53;;;3.50;;
1505;SDS011;744;51.436;7.356;2023-05-10T01:15:07;4.00;;;3.60;;
1505;SDS011;744;51.436;7.356;2023-05-10T01:17:37;4.50;;;3.90;;
1505;SDS011;744;51.436;7.356;2023-05-10T01:20:06;3.97;;;3.67;;
1505;SDS011;744;51.436;7.356;2023-05-10T01:25:36;15.80;;;4.50;;
1505;SDS011;744;51.436;7.356;2023-05-10T01:31:23;28.00;;;6.90;;
1505;SDS011;744;51.436;7.356;2023-05-10T01:34:01;5.80;;;5.23;;
1505;SDS011;744;51.436;7.356;2023-05-10T01:41:52;6.60;;;5.90;;
1505;SDS011;744;51.436;7.356;2023-05-10T01:47:42;4.70;;;3.90;;
1505;SDS011;744;51.436;7.356;2023-05-10T01:50:15;5.93;;;4.67;;
1505;SDS011;744;51.436;7.356;2023-05-10T01:52:49;5.10;;;4.70;;
1505;SDS011;744;51.436;7.356;2023-05-10T01:55:18;5.53;;;4.70;;
1505;SDS011;744;51.436;7.356;2023-05-10T01:57:47;6.40;;;5.27;;
1505;SDS011;744;51.436;7.356;2023-05-10T02:00:23;5.23;;;4.73;;
1505;SDS011;744;51.436;7.356;2023-05-10T02:02:50;6.00;;;4.80;;
1505;SDS011;744;51.436;7.356;2023-05-10T02:05:19;5.07;;;4.67;;
1505;SDS011;744;51.436;7.356;2023-05-10T02:07:47;5.57;;;4.67;;
1505;SDS011;744;51.436;7.356;2023-05-10T02:10:16;4.70;;;4.10;;
1505;SDS011;744;51.436;7.356;2023-05-10T02:12:45;5.20;;;4.40;;
1505;SDS011;744;51.436;7.356;2023-05-10T02:15:15;4.47;;;4.03;;
1505;SDS011;744;51.436;7.356;2023-05-10T02:17:45;5.30;;;4.80;;
1505;SDS011;744;51.436;7.356;2023-05-10T02:20:13;4.97;;;4.47;;
1505;SDS011;744;51.436;7.356;2023-05-10T02:22:44;7.40;;;6.70;;
1505;SDS011;744;51.436;7.356;2023-05-10T02:25:13;7.17;;;5.07;;
1505;SDS011;744;51.436;7.356;2023-05-10T02:27:42;5.70;;;5.20;;
1505;SDS011;744;51.436;7.356;2023-05-10T02:30:10;7.00;;;5.53;;
1505;SDS011;744;51.436;7.356;2023-05-10T02:32:38;5.03;;;4.63;;
1505;SDS011;744;51.436;7.356;2023-05-10T02:35:06;7.20;;;6.10;;
1505;SDS011;744;51.436;7.356;2023-05-10T02:37:34;5.60;;;4.90;;
1505;SDS011;744;51.436;7.356;2023-05-10T02:40:03;5.57;;;5.07;;
1505;SDS011;744;51.436;7.356;2023-05-10T02:42:32;7.10;;;5.50;;
1505;SDS011;744;51.436;7.356;2023-05-10T02:45:02;7.27;;;6.03;;
1505;SDS011;744;51.436;7.356;2023-05-10T02:47:37;6.03;;;5.43;;
1505;SDS011;744;51.436;7.356;2023-05-10T02:50:05;7.20;;;5.33;;
1505;SDS011;744;51.436;7.356;2023-05-10T02:52:42;7.20;;;5.40;;
1505;SDS011;744;51.436;7.356;2023-05-10T02:55:14;6.33;;;5.70;;
1505;SDS011;744;51.436;7.356;2023-05-10T02:57:43;7.13;;;6.43;;
1505;SDS011;744;51.436;7.356;2023-05-10T03:00:16;6.13;;;5.50;;
1505;SDS011;744;51.436;7.356;2023-05-10T03:02:43;6.47;;;5.87;;
1505;SDS011;744;51.436;7.356;2023-05-10T03:05:10;6.80;;;6.20;;
1505;SDS011;744;51.436;7.356;2023-05-10T03:07:37;6.37;;;5.73;;
1505;SDS011;744;51.436;7.356;2023-05-10T03:10:04;8.37;;;6.97;;
1505;SDS011;744;51.436;7.356;2023-05-10T03:20:42;7.43;;;5.77;;
1505;SDS011;744;51.436;7.356;2023-05-10T03:25:52;7.50;;;6.20;;
1505;SDS011;744;51.436;7.356;2023-05-10T03:28:20;8.90;;;6.03;;
1505;SDS011;744;51.436;7.356;2023-05-10T03:30:47;10.00;;;7.13;;
1505;SDS011;744;51.436;7.356;2023-05-10T03:33:15;17.50;;;8.53;;
1505;SDS011;744;51.436;7.356;2023-05-10T03:35:42;10.40;;;6.70;;
1505;SDS011;744;51.436;7.356;2023-05-10T03:38:12;7.57;;;6.37;;
1505;SDS011;744;51.436;7.356;2023-05-10T03:40:39;10.30;;;6.40;;
1505;SDS011;744;51.436;7.356;2023-05-10T03:43:06;7.23;;;6.30;;
1505;SDS011;744;51.436;7.356;2023-05-10T03:45:33;8.50;;;6.13;;
1505;SDS011;744;51.436;7.356;2023-05-10T03:48:00;9.43;;;8.27;;
1505;SDS011;744;51.436;7.356;2023-05-10T03:50:27;9.27;;;8.37;;
1505;SDS011;744;51.436;7.356;2023-05-10T03:52:53;6.80;;;6.07;;
1505;SDS011;744;51.436;7.356;2023-05-10T03:55:20;8.80;;;7.60;;
1505;SDS011;744;51.436;7.356;2023-05-10T03:57:48;14.17;;;7.33;;
1505;SDS011;744;51.436;7.356;2023-05-10T04:00:15;8.77;;;7.30;;
1505;SDS011;744;51.436;7.356;2023-05-10T04:02:43;8.93;;;8.00;;
1505;SDS011;744;51.436;7.356;2023-05-10T04:05:11;10.53;;;7.20;;
1505;SDS011;744;51.436;7.356;2023-05-10T04:07:38;9.30;;;7.90;;
1505;SDS011;744;51.436;7.356;2023-05-10T04:10:05;10.23;;;8.00;;
1505;SDS011;744;51.436;7.356;2023-05-10T04:12:33;11.03;;;8.00;;
1505;SDS011;744;51.436;7.356;2023-05-10T04:14:59;8.83;;;7.57;;
1505;SDS011;744;51.436;7.356;2023-05-10T04:17:27;11.87;;;8.00;;
1505;SDS011;744;51.436;7.356;2023-05-10T04:19:54;11.53;;;8.80;;
1505;SDS011;744;51.436;7.356;2023-05-10T04:22:22;14.13;;;8.30;;
1505;SDS011;744;51.436;7.356;2023-05-10T04:24:48;9.80;;;8.20;;
1505;SDS011;744;51.436;7.356;2023-05-10T04:27:15;10.10;;;9.00;;
1505;SDS011;744;51.436;7.356;2023-05-10T04:29:42;9.03;;;7.97;;
1505;SDS011;744;51.436;7.356;2023-05-10T04:32:09;9.37;;;8.37;;
1505;SDS011;744;51.436;7.356;2023-05-10T04:34:36;11.23;;;8.80;;
1505;SDS011;744;51.436;7.356;2023-05-10T04:37:09;11.83;;;8.03;;
1505;SDS011;744;51.436;7.356;2023-05-10T04:39:36;10.60;;;9.20;;
1505;SDS011;744;51.436;7.356;2023-05-10T04:42:06;10.00;;;9.00;;
1505;SDS011;744;51.436;7.356;2023-05-10T04:44:33;10.43;;;9.30;;
1505;SDS011;744;51.436;7.356;2023-05-10T04:47:00;11.53;;;8.53;;
1505;SDS011;744;51.436;7.356;2023-05-10T04:49:28;11.37;;;8.87;;
1505;SDS011;744;51.436;7.356;2023-05-10T04:51:55;9.87;;;8.50;;
1505;SDS011;744;51.436;7.356;2023-05-10T04:54:22;11.80;;;9.57;;
1505;SDS011;744;51.436;7.356;2023-05-10T04:56:49;16.20;;;10.30;;
1505;SDS011;744;51.436;7.356;2023-05-10T04:59:16;12.73;;;10.20;;
1505;SDS011;744;51.436;7.356;2023-05-10T05:01:43;16.60;;;11.47;;
1505;SDS011;744;51.436;7.356;2023-05-10T05:04:10;15.50;;;12.20;;
1505;SDS011;744;51.436;7.356;2023-05-10T05:06:37;14.43;;;11.10;;
1505;SDS011;744;51.436;7.356;2023-05-10T05:09:03;14.67;;;11.50;;
1505;SDS011;744;51.436;7.356;2023-05-10T05:11:30;22.10;;;11.80;;
1505;SDS011;744;51.436;7.356;2023-05-10T05:13:57;17.47;;;11.57;;
1505;SDS011;744;51.436;7.356;2023-05-10T05:16:25;19.17;;;13.47;;
1505;SDS011;744;51.436;7.356;2023-05-10T05:18:53;14.77;;;11.60;;
1505;SDS011;744;51.436;7.356;2023-05-10T05:21:19;17.10;;;13.20;;
1505;SDS011;744;51.436;7.356;2023-05-10T05:23:47;14.20;;;12.50;;
1505;SDS011;744;51.436;7.356;2023-05-10T05:26:14;17.03;;;13.60;;
1505;SDS011;744;51.436;7.356;2023-05-10T05:28:41;25.20;;;14.90;;
1505;SDS011;744;51.436;7.356;2023-05-10T05:31:08;16.17;;;13.20;;
1505;SDS011;744;51.436;7.356;2023-05-10T05:33:35;22.53;;;15.80;;
1505;SDS011;744;51.436;7.356;2023-05-10T05:36:02;19.03;;;14.40;;
1505;SDS011;744;51.436;7.356;2023-05-10T05:38:30;19.77;;;16.17;;
1505;SDS011;744;51.436;7.356;2023-05-10T05:40:57;19.37;;;16.00;;
1505;SDS011;744;51.436;7.356;2023-05-10T05:43:24;25.20;;;16.73;;
1505;SDS011;744;51.436;7.356;2023-05-10T05:45:54;23.17;;;17.07;;
1505;SDS011;744;51.436;7.356;2023-05-10T05:48:21;23.57;;;17.73;;
1505;SDS011;744;51.436;7.356;2023-05-10T05:50:47;20.23;;;18.03;;
1505;SDS011;744;51.436;7.356;2023-05-10T05:53:14;21.60;;;17.63;;
1505;SDS011;744;51.436;7.356;2023-05-10T05:55:51;22.27;;;17.80;;
1505;SDS011;744;51.436;7.356;2023-05-10T05:58:22;23.77;;;15.40;;
1505;SDS011;744;51.436;7.356;2023-05-10T06:00:49;27.70;;;19.20;;
1505;SDS011;744;51.436;7.356;2023-05-10T06:03:18;23.63;;;18.10;;
1505;SDS011;744;51.436;7.356;2023-05-10T06:05:45;26.80;;;18.83;;
1505;SDS011;744;51.436;7.356;2023-05-10T06:08:12;23.07;;;18.10;;
1505;SDS011;744;51.436;7.356;2023-05-10T06:10:38;24.17;;;18.27;;
1505;SDS011;744;51.436;7.356;2023-05-10T06:13:05;23.80;;;18.50;;
1505;SDS011;744;51.436;7.356;2023-05-10T06:15:32;24.83;;;19.17;;
1505;SDS011;744;51.436;7.356;2023-05-10T06:17:59;34.53;;;20.87;;
1505;SDS011;744;51.436;7.356;2023-05-10T06:20:26;23.40;;;18.60;;
1505;SDS011;744;51.436;7.356;2023-05-10T06:22:53;25.43;;;18.90;;
1505;SDS011;744;51.436;7.356;2023-05-10T06:25:20;24.10;;;18.20;;
1505;SDS011;744;51.436;7.356;2023-05-10T06:27:47;31.33;;;20.50;;
1505;SDS011;744;51.436;7.356;2023-05-10T06:30:19;28.90;;;20.80;;
1505;SDS011;744;51.436;7.356;2023-05-10T06:32:51;29.57;;;21.67;;
1505;SDS011;744;51.436;7.356;2023-05-10T06:35:38;28.90;;;21.80;;
1505;SDS011;744;51.436;7.356;2023-05-10T06:38:05;26.37;;;20.97;;
1505;SDS011;744;51.436;7.356;2023-05-10T06:40:31;33.30;;;21.83;;
1505;SDS011;744;51.436;7.356;2023-05-10T06:42:59;30.10;;;23.50;;
1505;SDS011;744;51.436;7.356;2023-05-10T06:45:25;26.20;;;20.33;;
1505;SDS011;744;51.436;7.356;2023-05-10T06:47:52;32.13;;;24.60;;
1505;SDS011;744;51.436;7.356;2023-05-10T06:50:19;27.70;;;19.93;;
1505;SDS011;744;51.436;7.356;2023-05-10T06:52:46;31.60;;;21.17;;
1505;SDS011;744;51.436;7.356;2023-05-10T06:55:12;31.83;;;22.07;;
1505;SDS011;744;51.436;7.356;2023-05-10T06:57:39;27.77;;;20.60;;
1505;SDS011;744;51.436;7.356;2023-05-10T07:00:06;25.73;;;20.30;;
1505;SDS011;744;51.436;7.356;2023-05-10T07:02:35;25.80;;;20.37;;
1505;SDS011;744;51.436;7.356;2023-05-10T07:05:02;23.37;;;19.63;;
1505;SDS011;744;51.436;7.356;2023-05-10T07:07:29;25.10;;;19.37;;
1505;SDS011;744;51.436;7.356;2023-05-10T07:09:56;24.47;;;20.57;;
1505;SDS011;744;51.436;7.356;2023-05-10T07:12:24;22.53;;;18.43;;
1505;SDS011;744;51.436;7.356;2023-05-10T07:14:51;25.53;;;19.43;;
1505;SDS011;744;51.436;7.356;2023-05-10T07:17:18;26.83;;;20.40;;
1505;SDS011;744;51.436;7.356;2023-05-10T07:19:45;27.00;;;19.27;;
1505;SDS011;744;51.436;7.356;2023-05-10T07:22:11;21.23;;;17.53;;
1505;SDS011;744;51.436;7.356;2023-05-10T07:24:39;24.37;;;19.87;;
1505;SDS011;744;51.436;7.356;2023-05-10T07:27:06;22.83;;;19.43;;
1505;SDS011;744;51.436;7.356;2023-05-10T07:29:33;25.77;;;19.63;;
1505;SDS011;744;51.436;7.356;2023-05-10T07:32:00;24.97;;;18.90;;
1505;SDS011;744;51.436;7.356;2023-05-10T07:34:27;21.70;;;18.20;;
1505;SDS011;744;51.436;7.356;2023-05-10T07:36:57;22.77;;;18.23;;
1505;SDS011;744;51.436;7.356;2023-05-10T07:39:25;24.67;;;18.83;;
1505;SDS011;744;51.436;7.356;2023-05-10T07:41:56;24.60;;;18.80;;
1505;SDS011;744;51.436;7.356;2023-05-10T07:44:23;26.00;;;20.53;;
1505;SDS011;744;51.436;7.356;2023-05-10T07:46:50;26.30;;;20.73;;
1505;SDS011;744;51.436;7.356;2023-05-10T07:49:17;31.20;;;21.30;;
1505;SDS011;744;51.436;7.356;2023-05-10T07:51:43;33.93;;;22.53;;
1505;SDS011;744;51.436;7.356;2023-05-10T07:54:10;30.23;;;23.47;;
1505;SDS011;744;51.436;7.356;2023-05-10T07:56:37;28.97;;;23.63;;
1505;SDS011;744;51.436;7.356;2023-05-10T07:59:06;29.60;;;23.00;;
1505;SDS011;744;51.436;7.356;2023-05-10T08:01:34;32.40;;;24.10;;
1505;SDS011;744;51.436;7.356;2023-05-10T08:04:01;30.07;;;25.17;;
1505;SDS011;744;51.436;7.356;2023-05-10T08:06:29;30.00;;;22.40;;
1505;SDS011;744;51.436;7.356;2023-05-10T08:08:56;23.00;;;17.67;;
1505;SDS011;744;51.436;7.356;2023-05-10T08:11:23;26.50;;;18.37;;
1505;SDS011;744;51.436;7.356;2023-05-10T08:13:50;22.40;;;16.20;;
1505;SDS011;744;51.436;7.356;2023-05-10T08:16:18;23.93;;;16.47;;
1505;SDS011;744;51.436;7.356;2023-05-10T08:18:45;21.47;;;17.00;;
1505;SDS011;744;51.436;7.356;2023-05-10T08:21:13;17.90;;;13.30;;
1505;SDS011;744;51.436;7.356;2023-05-10T08:23:41;16.30;;;12.10;;
1505;SDS011;744;51.436;7.356;2023-05-10T08:26:10;15.10;;;11.63;;
1505;SDS011;744;51.436;7.356;2023-05-10T08:28:37;19.03;;;12.30;;
1505;SDS011;744;51.436;7.356;2023-05-10T08:31:04;15.27;;;11.57;;
1505;SDS011;744;51.436;7.356;2023-05-10T08:33:32;20.87;;;11.87;;
1505;SDS011;744;51.436;7.356;2023-05-10T08:35:58;17.00;;;11.90;;
1505;SDS011;744;51.436;7.356;2023-05-10T08:38:25;13.83;;;12.10;;
1505;SDS011;744;51.436;7.356;2023-05-10T08:40:52;16.80;;;11.47;;
1505;SDS011;744;51.436;7.356;2023-05-10T08:43:28;14.40;;;10.83;;
1505;SDS011;744;51.436;7.356;2023-05-10T08:45:56;17.63;;;11.83;;
1505;SDS011;744;51.436;7.356;2023-05-10T08:48:25;15.27;;;11.07;;
1505;SDS011;744;51.436;7.356;2023-05-10T08:50:55;14.37;;;11.20;;
1505;SDS011;744;51.436;7.356;2023-05-10T08:53:24;19.63;;;13.03;;
1505;SDS011;744;51.436;7.356;2023-05-10T08:55:53;15.10;;;12.10;;
1505;SDS011;744;51.436;7.356;2023-05-10T08:58:21;14.57;;;11.63;;
1505;SDS011;744;51.436;7.356;2023-05-10T09:00:48;18.43;;;12.80;;
1505;SDS011;744;51.436;7.356;2023-05-10T09:03:18;17.20;;;12.40;;
1505;SDS011;744;51.436;7.356;2023-05-10T09:05:45;17.40;;;13.83;;
1505;SDS011;744;51.436;7.356;2023-05-10T09:08:13;18.63;;;13.13;;
1505;SDS011;744;51.436;7.356;2023-05-10T09:10:43;16.73;;;12.13;;
1505;SDS011;744;51.436;7.356;2023-05-10T09:13:10;17.57;;;11.20;;
1505;SDS011;744;51.436;7.356;2023-05-10T09:15:40;16.53;;;11.57;;
1505;SDS011;744;51.436;7.356;2023-05-10T09:18:07;20.97;;;12.27;;
1505;SDS011;744;51.436;7.356;2023-05-10T09:20:34;19.33;;;12.00;;
1505;SDS011;744;51.436;7.356;2023-05-10T09:23:00;12.70;;;10.47;;
1505;SDS011;744;51.436;7.356;2023-05-10T09:25:27;14.93;;;9.63;;
1505;SDS011;744;51.436;7.356;2023-05-10T09:27:54;15.50;;;9.63;;
1505;SDS011;744;51.436;7.356;2023-05-10T09:30:25;11.80;;;7.60;;
1505;SDS011;744;51.436;7.356;2023-05-10T09:32:57;11.00;;;8.33;;
1505;SDS011;744;51.436;7.356;2023-05-10T09:35:25;13.30;;;7.43;;
1505;SDS011;744;51.436;7.356;2023-05-10T09:37:57;9.20;;;6.90;;
1505;SDS011;744;51.436;7.356;2023-05-10T09:40:29;10.70;;;8.70;;
1505;SDS011;744;51.436;7.356;2023-05-10T09:45:28;13.40;;;9.27;;
1505;SDS011;744;51.436;7.356;2023-05-10T09:47:56;8.30;;;7.40;;
1505;SDS011;744;51.436;7.356;2023-05-10T09:50:25;11.90;;;7.60;;
1505;SDS011;744;51.436;7.356;2023-05-10T09:52:57;8.37;;;7.20;;
1505;SDS011;744;51.436;7.356;2023-05-10T09:55:26;8.27;;;7.40;;
1505;SDS011;744;51.436;7.356;2023-05-10T09:58:08;14.10;;;7.80;;
1505;SDS011;744;51.436;7.356;2023-05-10T10:00:37;9.43;;;7.30;;
1505;SDS011;744;51.436;7.356;2023-05-10T10:03:15;11.73;;;7.70;;
1505;SDS011;744;51.436;7.356;2023-05-10T10:05:43;10.40;;;8.50;;
1505;SDS011;744;51.436;7.356;2023-05-10T10:08:11;11.63;;;6.90;;
1505;SDS011;744;51.436;7.356;2023-05-10T10:10:39;12.70;;;8.90;;
1505;SDS011;744;51.436;7.356;2023-05-10T10:13:07;11.33;;;8.00;;
1505;SDS011;744;51.436;7.356;2023-05-10T10:15:34;14.00;;;9.00;;
1505;SDS011;744;51.436;7.356;2023-05-10T10:18:01;10.20;;;8.43;;
1505;SDS011;744;51.436;7.356;2023-05-10T10:20:30;11.17;;;9.00;;
1505;SDS011;744;51.436;7.356;2023-05-10T10:22:57;15.70;;;11.17;;
1505;SDS011;744;51.436;7.356;2023-05-10T10:25:24;13.40;;;10.13;;
1505;SDS011;744;51.436;7.356;2023-05-10T10:30:24;14.60;;;8.97;;
1505;SDS011;744;51.436;7.356;2023-05-10T10:35:50;13.87;;;9.53;;
1505;SDS011;744;51.436;7.356;2023-05-10T10:38:19;16.33;;;10.53;;
1505;SDS011;744;51.436;7.356;2023-05-10T10:40:47;24.17;;;15.93;;
1505;SDS011;744;51.436;7.356;2023-05-10T10:43:27;22.67;;;15.97;;
1505;SDS011;744;51.436;7.356;2023-05-10T10:49:08;29.80;;;18.30;;
1505;SDS011;744;51.436;7.356;2023-05-10T10:51:38;24.73;;;16.10;;
1505;SDS011;744;51.436;7.356;2023-05-10T10:54:09;21.90;;;16.00;;
1505;SDS011;744;51.436;7.356;2023-05-10T10:56:37;18.73;;;13.33;;
1505;SDS011;744;51.436;7.356;2023-05-10T10:59:04;21.30;;;14.03;;
1505;SDS011;744;51.436;7.356;2023-05-10T11:01:34;17.10;;;12.60;;
1505;SDS011;744;51.436;7.356;2023-05-10T11:06:32;17.17;;;12.13;;
1505;SDS011;744;51.436;7.356;2023-05-10T11:09:10;15.60;;;11.70;;
1505;SDS011;744;51.436;7.356;2023-05-10T11:11:56;14.93;;;11.80;;
1505;SDS011;744;51.436;7.356;2023-05-10T11:14:25;16.70;;;11.03;;
1505;SDS011;744;51.436;7.356;2023-05-10T11:16:52;14.90;;;11.80;;
1505;SDS011;744;51.436;7.356;2023-05-10T11:19:19;20.17;;;11.87;;
1505;SDS011;744;51.436;7.356;2023-05-10T11:21:50;14.17;;;10.63;;
1505;SDS011;744;51.436;7.356;2023-05-10T11:24:37;14.97;;;9.23;;
1505;SDS011;744;51.436;7.356;2023-05-10T11:27:05;11.40;;;10.17;;
1505;SDS011;744;51.436;7.356;2023-05-10T11:29:32;15.33;;;10.90;;
1505;SDS011;744;51.436;7.356;2023-05-10T11:31:59;13.93;;;9.80;;
1505;SDS011;744;51.436;7.356;2023-05-10T11:34:30;12.13;;;9.70;;
1505;SDS011;744;51.436;7.356;2023-05-10T11:37:00;11.33;;;9.60;;
1505;SDS011;744;51.436;7.356;2023-05-10T11:39:27;12.40;;;9.73;;
1505;SDS011;744;51.436;7.356;2023-05-10T11:41:55;21.27;;;12.03;;
1505;SDS011;744;51.436;7.356;2023-05-10T11:44:23;11.50;;;10.27;;
1505;SDS011;744;51.436;7.356;2023-05-10T11:46:57;15.07;;;10.63;;
1505;SDS011;744;51.436;7.356;2023-05-10T11:49:25;13.87;;;12.47;;
1505;SDS011;744;51.436;7.356;2023-05-10T11:51:52;13.00;;;11.57;;
1505;SDS011;744;51.436;7.356;2023-05-10T11:54:19;19.87;;;13.47;;
1505;SDS011;744;51.436;7.356;2023-05-10T11:56:46;16.77;;;11.87;;
1505;SDS011;744;51.436;7.356;2023-05-10T11:59:13;14.33;;;12.83;;
1505;SDS011;744;51.436;7.356;2023-05-10T12:01:41;13.60;;;12.30;;
1505;SDS011;744;51.436;7.356;2023-05-10T12:04:08;15.70;;;12.37;;
1505;SDS011;744;51.436;7.356;2023-05-10T12:06:37;13.10;;;11.00;;
1505;SDS011;744;51.436;7.356;2023-05-10T12:09:07;18.07;;;11.00;;
1505;SDS011;744;51.436;7.356;2023-05-10T12:11:36;15.40;;;9.13;;
1505;SDS011;744;51.436;7.356;2023-05-10T12:14:09;14.33;;;10.80;;
1505;SDS011;744;51.436;7.356;2023-05-10T12:16:36;17.13;;;11.10;;
1505;SDS011;744;51.436;7.356;2023-05-10T12:19:03;14.30;;;11.40;;
1505;SDS011;744;51.436;7.356;2023-05-10T12:21:32;12.30;;;9.53;;
1505;SDS011;744;51.436;7.356;2023-05-10T12:23:59;15.80;;;11.53;;
1505;SDS011;744;51.436;7.356;2023-05-10T12:26:29;14.10;;;9.90;;
1505;SDS011;744;51.436;7.356;2023-05-10T12:29:11;13.00;;;11.40;;
1505;SDS011;744;51.436;7.356;2023-05-10T12:34:32;12.77;;;11.40;;
1505;SDS011;744;51.436;7.356;2023-05-10T12:37:00;15.90;;;13.07;;
1505;SDS011;744;51.436;7.356;2023-05-10T12:39:40;12.60;;;11.30;;
1505;SDS011;744;51.436;7.356;2023-05-10T12:42:08;12.30;;;11.00;;
1505;SDS011;744;51.436;7.356;2023-05-10T12:44:37;13.33;;;10.63;;
1505;SDS011;744;51.436;7.356;2023-05-10T12:47:04;11.33;;;10.23;;
1505;SDS011;744;51.436;7.356;2023-05-10T12:49:32;11.23;;;9.73;;
1505;SDS011;744;51.436;7.356;2023-05-10T12:52:00;10.50;;;9.40;;
1505;SDS011;744;51.436;7.356;2023-05-10T12:54:26;10.60;;;9.50;;
1505;SDS011;744;51.436;7.356;2023-05-10T12:56:54;11.47;;;9.33;;
1505;SDS011;744;51.436;7.356;2023-05-10T12:59:20;13.97;;;9.43;;
1505;SDS011;744;51.436;7.356;2023-05-10T13:01:49;9.20;;;8.30;;
1505;SDS011;744;51.436;7.356;2023-05-10T13:04:15;9.20;;;8.23;;
1505;SDS011;744;51.436;7.356;2023-05-10T13:06:42;12.80;;;9.50;;
1505;SDS011;744;51.436;7.356;2023-05-10T13:09:09;12.50;;;10.20;;
1505;SDS011;744;51.436;7.356;2023-05-10T13:11:36;11.30;;;10.20;;
1505;SDS011;744;51.436;7.356;2023-05-10T13:14:03;13.43;;;10.33;;
1505;SDS011;744;51.436;7.356;2023-05-10T13:16:30;12.33;;;11.10;;
1505;SDS011;744;51.436;7.356;2023-05-10T13:18:58;13.07;;;11.73;;
1505;SDS011;744;51.436;7.356;2023-05-10T13:21:25;14.20;;;12.00;;
1505;SDS011;744;51.436;7.356;2023-05-10T13:23:52;16.13;;;12.23;;
1505;SDS011;744;51.436;7.356;2023-05-10T13:26:19;12.30;;;11.07;;
1505;SDS011;744;51.436;7.356;2023-05-10T13:28:46;13.97;;;12.50;;
1505;SDS011;744;51.436;7.356;2023-05-10T13:31:14;10.73;;;9.63;;
1505;SDS011;744;51.436;7.356;2023-05-10T13:33:41;12.33;;;11.03;;
1505;SDS011;744;51.436;7.356;2023-05-10T13:36:08;11.10;;;10.10;;
1505;SDS011;744;51.436;7.356;2023-05-10T13:38:35;12.00;;;10.23;;
1505;SDS011;744;51.436;7.356;2023-05-10T13:41:02;11.80;;;10.10;;
1505;SDS011;744;51.436;7.356;2023-05-10T13:43:29;12.87;;;11.67;;
1505;SDS011;744;51.436;7.356;2023-05-10T13:45:56;13.50;;;10.90;;
1505;SDS011;744;51.436;7.356;2023-05-10T13:48:26;12.90;;;10.53;;
1505;SDS011;744;51.436;7.356;2023-05-10T13:50:53;12.47;;;10.03;;
1505;SDS011;744;51.436;7.356;2023-05-10T13:53:20;12.70;;;10.70;;
1505;SDS011;744;51.436;7.356;2023-05-10T13:55:47;9.70;;;8.70;;
1505;SDS011;744;51.436;7.356;2023-05-10T13:58:15;9.87;;;8.90;;
1505;SDS011;744;51.436;7.356;2023-05-10T14:00:42;13.77;;;10.00;;
1505;SDS011;744;51.436;7.356;2023-05-10T14:03:08;7.80;;;7.10;;
1505;SDS011;744;51.436;7.356;2023-05-10T14:05:37;13.30;;;6.80;;
1505;SDS011;744;51.436;7.356;2023-05-10T14:08:04;6.87;;;6.17;;
1505;SDS011;744;51.436;7.356;2023-05-10T14:10:31;7.03;;;6.33;;
1505;SDS011;744;51.436;7.356;2023-05-10T14:12:58;5.27;;;4.57;;
1505;SDS011;744;51.436;7.356;2023-05-10T14:15:25;5.57;;;5.07;;
1505;SDS011;744;51.436;7.356;2023-05-10T14:17:52;5.57;;;4.90;;
1505;SDS011;744;51.436;7.356;2023-05-10T14:20:19;5.73;;;5.23;;
1505;SDS011;744;51.436;7.356;2023-05-10T14:22:45;6.97;;;6.13;;
1505;SDS011;744;51.436;7.356;2023-05-10T14:25:13;6.90;;;6.20;;
1505;SDS011;744;51.436;7.356;2023-05-10T14:27:41;5.60;;;5.03;;
1505;SDS011;744;51.436;7.356;2023-05-10T14:30:08;5.73;;;5.20;;
1505;SDS011;744;51.436;7.356;2023-05-10T14:32:35;5.80;;;5.30;;
1505;SDS011;744;51.436;7.356;2023-05-10T14:35:03;5.50;;;4.60;;
1505;SDS011;744;51.436;7.356;2023-05-10T14:37:30;4.80;;;4.30;;
1505;SDS011;744;51.436;7.356;2023-05-10T14:39:58;3.57;;;3.23;;
1505;SDS011;744;51.436;7.356;2023-05-10T14:42:26;7.93;;;4.00;;
1505;SDS011;744;51.436;7.356;2023-05-10T14:44:55;4.50;;;4.10;;
1505;SDS011;744;51.436;7.356;2023-05-10T14:47:23;3.40;;;3.10;;
1505;SDS011;744;51.436;7.356;2023-05-10T14:49:50;5.90;;;2.93;;
1505;SDS011;744;51.436;7.356;2023-05-10T14:52:18;6.97;;;2.87;;
1505;SDS011;744;51.436;7.356;2023-05-10T14:54:44;4.63;;;4.23;;
1505;SDS011;744;51.436;7.356;2023-05-10T14:57:11;4.10;;;3.70;;
1505;SDS011;744;51.436;7.356;2023-05-10T14:59:38;4.23;;;3.80;;
1505;SDS011;744;51.436;7.356;2023-05-10T15:02:05;4.43;;;4.03;;
1505;SDS011;744;51.436;7.356;2023-05-10T15:04:34;4.27;;;3.83;;
1505;SDS011;744;51.436;7.356;2023-05-10T15:07:02;4.93;;;3.43;;
1505;SDS011;744;51.436;7.356;2023-05-10T15:09:29;3.97;;;3.47;;
1505;SDS011;744;51.436;7.356;2023-05-10T15:11:56;6.20;;;3.50;;
1505;SDS011;744;51.436;7.356;2023-05-10T15:14:22;4.30;;;3.90;;
1505;SDS011;744;51.436;7.356;2023-05-10T15:16:49;7.63;;;5.10;;
1505;SDS011;744;51.436;7.356;2023-05-10T15:19:16;10.17;;;5.87;;
1505;SDS011;744;51.436;7.356;2023-05-10T15:21:43;6.10;;;5.50;;
1505;SDS011;744;51.436;7.356;2023-05-10T15:24:11;5.90;;;5.40;;
1505;SDS011;744;51.436;7.356;2023-05-10T15:26:38;5.67;;;5.17;;
1505;SDS011;744;51.436;7.356;2023-05-10T15:29:06;6.60;;;4.83;;
1505;SDS011;744;51.436;7.356;2023-05-10T15:31:33;5.30;;;4.73;;
1505;SDS011;744;51.436;7.356;2023-05-10T15:34:02;5.03;;;4.17;;
1505;SDS011;744;51.436;7.356;2023-05-10T15:36:28;6.80;;;5.93;;
1505;SDS011;744;51.436;7.356;2023-05-10T15:38:55;6.13;;;5.63;;
1505;SDS011;744;51.436;7.356;2023-05-10T15:41:22;5.80;;;4.90;;
1505;SDS011;744;51.436;7.356;2023-05-10T15:43:50;6.03;;;5.50;;
1505;SDS011;744;51.436;7.356;2023-05-10T15:46:16;5.63;;;4.83;;
1505;SDS011;744;51.436;7.356;2023-05-10T15:48:43;6.23;;;5.33;;
1505;SDS011;744;51.436;7.356;2023-05-10T15:51:10;5.90;;;5.10;;
1505;SDS011;744;51.436;7.356;2023-05-10T15:53:37;9.97;;;5.23;;
1505;SDS011;744;51.436;7.356;2023-05-10T15:56:18;9.70;;;7.90;;
1505;SDS011;744;51.436;7.356;2023-05-10T15:58:45;7.20;;;5.90;;
1505;SDS011;744;51.436;7.356;2023-05-10T16:01:12;5.60;;;5.10;;
1505;SDS011;744;51.436;7.356;2023-05-10T16:03:39;5.30;;;4.80;;